Time;durP1;ratioP1;P1;durP2;ratioP2;P2;SDS_P1;SDS_P2;PMS_P1;PMS_P2;Temp;Humidity;BMP_temperature;BMP_pressure;BME280_temperature;BME280_humidity;BME280_pressure;Samples;Min_cycle;Max_cycle;Signal;HPM_P1;HPM_P2
2022/11/05 00:10:35;;;;;;;12.30;2.20;;;;;;;;;;6300573;22;20023;-59
2022/11/05 00:18:40;;;;;;;8.23;1.40;;;;;;;;;;6300982;22;20049;-60
2022/11/05 00:26:52;;;;;;;8.55;1.90;;;;;;;;;;6298799;22;20091;-64
2022/11/05 00:29:19;;;;;;;8.65;1.77;;;;;;;;;;6300355;22;20134;-65
2022/11/05 00:31:53;;;;;;;14.02;1.80;;;;;;;;;;6299773;22;20045;-64
2022/11/05 00:34:21;;;;;;;7.03;1.58;;;;;;;;;;6298062;22;20022;-64
2022/11/05 00:36:55;;;;;;;6.60;1.58;;;;;;;;;;6299570;22;20019;-63
2022/11/05 00:39:22;;;;;;;8.70;1.80;;;;;;;;;;6299898;22;20559;-64
2022/11/05 00:45:00;;;;;;;6.82;1.48;;;;;;;;;;6299753;22;20024;-60
2022/11/05 00:50:25;;;;;;;7.53;1.20;;;;;;;;;;6302783;22;20098;-60
2022/11/05 00:53:00;;;;;;;10.60;1.80;;;;;;;;;;6302869;22;20542;-59
2022/11/05 00:55:29;;;;;;;8.52;1.85;;;;;;;;;;6302022;22;20015;-60
2022/11/05 00:58:03;;;;;;;10.80;2.10;;;;;;;;;;6276474;22;20026;-60
2022/11/05 01:00:31;;;;;;;10.20;1.85;;;;;;;;;;6303414;22;20019;-59
2022/11/05 01:02:59;;;;;;;7.10;1.52;;;;;;;;;;6302056;22;20019;-60
2022/11/05 01:05:37;;;;;;;9.63;1.60;;;;;;;;;;6302671;22;20023;-52
2022/11/05 01:08:04;;;;;;;9.30;1.77;;;;;;;;;;6303296;22;20015;-50
2022/11/05 01:10:32;;;;;;;9.68;1.55;;;;;;;;;;6302195;22;20102;-51
2022/11/05 01:13:05;;;;;;;8.32;1.80;;;;;;;;;;6301288;22;20020;-48
2022/11/05 01:15:39;;;;;;;9.23;1.55;;;;;;;;;;6303010;22;20531;-52
2022/11/05 01:18:13;;;;;;;9.73;1.75;;;;;;;;;;6302259;22;20098;-53
2022/11/05 01:20:40;;;;;;;;;;;;;;;;;;6300966;22;20027;-54
2022/11/05 01:23:07;;;;;;;8.27;1.40;;;;;;;;;;6301436;22;19914;-60
2022/11/05 01:25:43;;;;;;;13.57;1.80;;;;;;;;;;6300647;22;20023;-60
2022/11/05 01:28:10;;;;;;;10.48;1.83;;;;;;;;;;6302195;22;20054;-60
2022/11/05 01:30:54;;;;;;;10.13;1.80;;;;;;;;;;6302300;22;20423;-60
2022/11/05 01:33:21;;;;;;;17.02;2.20;;;;;;;;;;6301825;22;20102;-60
2022/11/05 01:35:55;;;;;;;11.38;1.98;;;;;;;;;;6301206;22;20027;-60
2022/11/05 01:38:29;;;;;;;6.28;1.70;;;;;;;;;;6301119;22;20023;-60
2022/11/05 01:40:57;;;;;;;10.75;2.00;;;;;;;;;;6301539;22;20037;-49
2022/11/05 01:43:24;;;;;;;9.45;1.70;;;;;;;;;;6302060;22;20456;-66
2022/11/05 01:45:58;;;;;;;11.98;1.83;;;;;;;;;;6302907;22;20023;-65
2022/11/05 01:48:34;;;;;;;9.13;2.00;;;;;;;;;;6299928;22;20022;-66
2022/11/05 01:51:17;;;;;;;9.93;2.33;;;;;;;;;;6302891;22;20021;-65
2022/11/05 01:53:47;;;;;;;10.73;1.90;;;;;;;;;;6301059;22;20019;-65
2022/11/05 01:56:24;;;;;;;14.07;2.42;;;;;;;;;;6302352;22;20041;-66
2022/11/05 01:58:59;;;;;;;19.38;3.22;;;;;;;;;;6302640;22;20030;-60
2022/11/05 02:01:33;;;;;;;11.60;2.15;;;;;;;;;;6301593;22;20023;-60
2022/11/05 02:04:02;;;;;;;16.83;2.58;;;;;;;;;;6301235;22;20382;-60
2022/11/05 02:06:32;;;;;;;15.27;2.70;;;;;;;;;;6302959;22;20027;-60
2022/11/05 02:09:12;;;;;;;20.35;2.50;;;;;;;;;;6301332;22;20055;-60
2022/11/05 02:11:39;;;;;;;14.75;2.80;;;;;;;;;;6301763;22;20029;-60
2022/11/05 02:14:12;;;;;;;20.88;2.25;;;;;;;;;;6302569;22;20015;-60
2022/11/05 02:16:48;;;;;;;9.73;2.50;;;;;;;;;;6300703;22;20023;-59
2022/11/05 02:19:28;;;;;;;20.60;3.33;;;;;;;;;;6302680;22;20021;-59
2022/11/05 02:21:56;;;;;;;22.27;3.28;;;;;;;;;;6302000;22;20041;-53
2022/11/05 02:24:32;;;;;;;19.80;2.90;;;;;;;;;;6300408;22;20098;-53
2022/11/05 02:27:12;;;;;;;24.15;3.25;;;;;;;;;;6301620;22;20027;-53
2022/11/05 02:29:39;;;;;;;20.88;3.17;;;;;;;;;;6302714;22;20025;-49
2022/11/05 02:32:15;;;;;;;16.67;2.55;;;;;;;;;;6274538;22;20031;-54
2022/11/05 02:34:52;;;;;;;18.73;3.35;;;;;;;;;;6301060;22;20388;-52
2022/11/05 02:37:25;;;;;;;20.85;2.83;;;;;;;;;;6301726;22;20026;-63
2022/11/05 02:40:08;;;;;;;22.48;2.92;;;;;;;;;;6301027;22;20022;-51
2022/11/05 02:42:39;;;;;;;30.33;3.22;;;;;;;;;;6300022;22;20023;-51
2022/11/05 02:45:20;;;;;;;18.10;2.15;;;;;;;;;;6301396;22;20356;-52
2022/11/05 02:47:50;;;;;;;20.23;3.00;;;;;;;;;;6300112;22;20025;-49
2022/11/05 02:50:34;;;;;;;22.00;2.72;;;;;;;;;;6301330;22;20098;-53
2022/11/05 02:53:02;;;;;;;;;;;;;;;;;;6301447;22;20022;-54
2022/11/05 02:55:39;;;;;;;27.95;2.95;;;;;;;;;;6300956;22;19923;-65
2022/11/05 02:58:06;;;;;;;19.67;2.67;;;;;;;;;;6300550;22;20027;-51
2022/11/05 03:01:02;;;;;;;15.93;2.55;;;;;;;;;;6300201;22;20022;-60
2022/11/05 03:03:35;;;;;;;20.83;2.85;;;;;;;;;;6300458;22;20479;-59
2022/11/05 03:06:06;;;;;;;25.42;3.50;;;;;;;;;;6300566;22;20049;-60
2022/11/05 03:08:33;;;;;;;19.45;2.72;;;;;;;;;;6301665;22;20021;-60
2022/11/05 03:11:13;;;;;;;24.60;2.80;;;;;;;;;;6301298;22;20102;-59
2022/11/05 03:13:49;;;;;;;18.23;2.83;;;;;;;;;;6301258;22;20027;-50
2022/11/05 03:16:23;;;;;;;18.17;3.35;;;;;;;;;;6301532;22;20019;-60
2022/11/05 03:19:07;;;;;;;18.98;2.67;;;;;;;;;;6300976;22;20023;-62
2022/11/05 03:21:41;;;;;;;22.27;2.90;;;;;;;;;;6301158;22;20273;-62
2022/11/05 03:24:18;;;;;;;22.25;3.20;;;;;;;;;;6301287;22;20019;-62
2022/11/05 03:26:51;;;;;;;14.15;2.50;;;;;;;;;;6301372;22;20104;-62
2022/11/05 03:29:37;;;;;;;15.80;2.65;;;;;;;;;;6300109;22;20026;-62
2022/11/05 03:32:06;;;;;;;18.60;2.88;;;;;;;;;;6300963;22;20019;-62
2022/11/05 03:34:42;;;;;;;23.90;2.90;;;;;;;;;;6301018;22;20024;-59
2022/11/05 03:37:10;;;;;;;17.77;3.00;;;;;;;;;;6300266;22;20023;-51
2022/11/05 03:39:45;;;;;;;27.90;3.38;;;;;;;;;;6300363;22;20025;-52
2022/11/05 03:42:16;;;;;;;20.88;3.28;;;;;;;;;;6301241;22;20037;-49
2022/11/05 03:44:54;;;;;;;26.63;3.25;;;;;;;;;;6301489;22;20051;-54
2022/11/05 03:47:24;;;;;;;21.95;3.20;;;;;;;;;;6301380;22;20023;-49
2022/11/05 03:50:15;;;;;;;28.58;3.30;;;;;;;;;;6300669;22;20054;-49
2022/11/05 03:52:48;;;;;;;23.17;2.97;;;;;;;;;;6297865;22;20027;-50
2022/11/05 03:55:25;;;;;;;17.95;2.85;;;;;;;;;;6300198;22;20491;-61
2022/11/05 03:57:53;;;;;;;23.80;3.15;;;;;;;;;;6299594;22;20019;-53
2022/11/05 04:00:26;;;;;;;24.30;3.05;;;;;;;;;;6300538;22;20480;-52
2022/11/05 04:02:54;;;;;;;29.65;3.50;;;;;;;;;;6300395;22;20563;-51
2022/11/05 04:05:28;;;;;;;27.52;3.47;;;;;;;;;;6300577;22;20094;-52
2022/11/05 04:13:34;;;;;;;24.33;2.83;;;;;;;;;;6299975;22;20019;-49
2022/11/05 04:18:53;;;;;;;24.23;3.55;;;;;;;;;;6301354;22;20019;-61
2022/11/05 04:24:13;;;;;;;26.15;3.45;;;;;;;;;;6302310;22;20019;-61
2022/11/05 04:26:46;;;;;;;29.92;3.78;;;;;;;;;;6302874;22;20054;-61
2022/11/05 04:32:06;;;;;;;20.67;3.38;;;;;;;;;;6303675;22;20102;-61
2022/11/05 04:34:34;;;;;;;20.23;3.13;;;;;;;;;;6302803;22;20019;-51
2022/11/05 04:37:01;;;;;;;31.63;3.85;;;;;;;;;;6301106;22;20399;-51
2022/11/05 04:39:34;;;;;;;28.98;3.90;;;;;;;;;;6302818;22;20019;-52
2022/11/05 04:42:02;;;;;;;27.73;4.20;;;;;;;;;;6303840;22;20030;-51
2022/11/05 04:44:36;;;;;;;27.02;3.90;;;;;;;;;;6303001;22;20069;-51
2022/11/05 04:47:03;;;;;;;24.77;3.20;;;;;;;;;;6302007;22;20023;-51
2022/11/05 04:49:30;;;;;;;29.90;3.67;;;;;;;;;;6302122;22;20058;-58
2022/11/05 04:52:04;;;;;;;23.90;3.30;;;;;;;;;;6302842;22;20532;-59
2022/11/05 04:54:31;;;;;;;25.48;3.60;;;;;;;;;;6301383;22;20030;-51
2022/11/05 04:57:04;;;;;;;28.02;4.03;;;;;;;;;;6303927;22;20015;-51
2022/11/05 04:59:32;;;;;;;20.98;3.10;;;;;;;;;;6303092;22;20094;-53
2022/11/05 05:01:59;;;;;;;26.55;3.75;;;;;;;;;;6303305;22;20115;-51
2022/11/05 05:04:33;;;;;;;26.58;2.92;;;;;;;;;;6300736;22;20046;-48
2022/11/05 05:07:00;;;;;;;24.20;3.20;;;;;;;;;;6301852;22;20102;-52
2022/11/05 05:09:27;;;;;;;24.52;3.10;;;;;;;;;;6303578;22;20057;-60
2022/11/05 05:12:01;;;;;;;23.65;3.88;;;;;;;;;;6302489;22;20102;-60
2022/11/05 05:14:28;;;;;;;30.33;3.78;;;;;;;;;;6300924;22;20045;-59
2022/11/05 05:17:02;;;;;;;24.48;4.00;;;;;;;;;;6301311;22;20019;-60
2022/11/05 05:19:29;;;;;;;28.77;3.15;;;;;;;;;;6301006;22;20293;-60
2022/11/05 05:21:56;;;;;;;27.27;4.35;;;;;;;;;;6300063;22;20029;-60
2022/11/05 05:24:29;;;;;;;21.52;2.92;;;;;;;;;;6301884;22;20501;-60
2022/11/05 05:26:57;;;;;;;29.42;3.28;;;;;;;;;;6302675;22;20073;-60
2022/11/05 05:29:31;;;;;;;22.98;3.63;;;;;;;;;;6301043;22;20482;-56
2022/11/05 05:31:58;;;;;;;22.80;3.60;;;;;;;;;;6302442;22;20338;-60
2022/11/05 05:34:25;;;;;;;25.27;3.67;;;;;;;;;;6300868;22;20102;-61
2022/11/05 05:36:58;;;;;;;31.35;3.70;;;;;;;;;;6300507;22;20019;-61
2022/11/05 05:39:26;;;;;;;27.20;3.63;;;;;;;;;;6301508;22;20019;-61
2022/11/05 05:42:00;;;;;;;38.05;4.30;;;;;;;;;;6302552;22;20029;-61
2022/11/05 05:44:27;;;;;;;24.50;3.53;;;;;;;;;;6300398;22;20019;-61
2022/11/05 05:46:54;;;;;;;25.05;3.53;;;;;;;;;;6301807;22;20099;-65
2022/11/05 05:49:40;;;;;;;26.27;3.53;;;;;;;;;;6301343;22;20019;-66
2022/11/05 05:52:14;;;;;;;20.65;3.50;;;;;;;;;;6301871;22;20051;-60
2022/11/05 05:54:48;;;;;;;27.90;3.17;;;;;;;;;;6299681;22;20460;-60
2022/11/05 05:57:16;;;;;;;22.23;2.90;;;;;;;;;;6302071;22;20071;-61
2022/11/05 05:59:43;;;;;;;24.60;3.92;;;;;;;;;;6301832;22;20015;-61
2022/11/05 06:02:16;;;;;;;30.58;3.83;;;;;;;;;;6300781;22;20049;-60
2022/11/05 06:04:44;;;;;;;30.15;2.95;;;;;;;;;;6300334;22;20027;-61
2022/11/05 06:07:17;;;;;;;38.70;4.60;;;;;;;;;;6301798;22;20035;-58
2022/11/05 06:09:45;;;;;;;26.80;3.08;;;;;;;;;;6302299;22;20046;-60
2022/11/05 06:12:12;;;;;;;27.17;3.83;;;;;;;;;;6302205;22;20024;-60
2022/11/05 06:14:47;;;;;;;24.88;3.28;;;;;;;;;;6299967;22;20342;-60
2022/11/05 06:17:14;;;;;;;20.90;2.78;;;;;;;;;;6275347;22;20099;-59
2022/11/05 06:19:47;;;;;;;24.45;3.00;;;;;;;;;;6301718;22;20502;-60
2022/11/05 06:22:15;;;;;;;26.45;3.53;;;;;;;;;;6274238;22;20027;-59
2022/11/05 06:24:42;;;;;;;30.58;4.18;;;;;;;;;;6301434;22;20051;-60
2022/11/05 06:27:15;;;;;;;23.83;3.53;;;;;;;;;;6301542;22;20105;-60
2022/11/05 06:29:43;;;;;;;21.88;3.13;;;;;;;;;;6302250;22;20022;-65
2022/11/05 06:32:10;;;;;;;29.52;3.35;;;;;;;;;;6301979;22;20019;-65
2022/11/05 06:34:44;;;;;;;33.08;3.90;;;;;;;;;;6274321;22;20532;-65
2022/11/05 06:37:11;;;;;;;28.45;3.42;;;;;;;;;;6302246;22;20170;-65
2022/11/05 06:39:38;;;;;;;26.00;3.40;;;;;;;;;;6301764;22;20046;-65
2022/11/05 06:42:11;;;;;;;25.67;3.10;;;;;;;;;;6300954;22;20098;-65
2022/11/05 06:44:45;;;;;;;25.77;3.22;;;;;;;;;;6300956;22;20020;-65
2022/11/05 06:47:19;;;;;;;26.02;3.85;;;;;;;;;;6302155;22;20042;-64
2022/11/05 06:49:52;;;;;;;32.08;4.15;;;;;;;;;;6299544;22;20384;-65
2022/11/05 06:52:32;;;;;;;30.85;3.25;;;;;;;;;;6301306;22;20104;-65
2022/11/05 06:55:06;;;;;;;18.83;2.85;;;;;;;;;;6302170;22;20022;-65
2022/11/05 06:57:41;;;;;;;27.38;3.33;;;;;;;;;;6300878;22;20029;-65
2022/11/05 07:00:08;;;;;;;24.80;2.97;;;;;;;;;;6301551;22;20101;-65
2022/11/05 07:02:35;;;;;;;21.42;2.75;;;;;;;;;;6301341;22;20098;-60
2022/11/05 07:05:10;;;;;;;15.05;2.63;;;;;;;;;;6301450;22;20098;-63
2022/11/05 07:07:37;;;;;;;24.00;3.45;;;;;;;;;;6301684;22;20023;-59
2022/11/05 07:10:13;;;;;;;24.35;3.30;;;;;;;;;;6301303;22;20102;-59
2022/11/05 07:12:40;;;;;;;26.85;4.35;;;;;;;;;;6301072;22;20114;-59
2022/11/05 07:15:08;;;;;;;21.15;3.03;;;;;;;;;;6301705;22;20096;-60
2022/11/05 07:17:42;;;;;;;16.95;2.53;;;;;;;;;;6300685;22;20023;-60
2022/11/05 07:20:09;;;;;;;17.35;2.83;;;;;;;;;;6301035;22;20021;-60
2022/11/05 07:22:44;;;;;;;27.90;3.97;;;;;;;;;;6300964;22;20494;-53
2022/11/05 07:25:11;;;;;;;25.40;3.03;;;;;;;;;;6301871;22;20399;-58
2022/11/05 07:27:42;;;;;;;16.95;2.70;;;;;;;;;;6299593;22;20109;-56
2022/11/05 07:30:15;;;;;;;41.78;12.80;;;;;;;;;;6301648;22;20452;-57
2022/11/05 07:32:43;;;;;;;26.75;6.43;;;;;;;;;;6300043;22;20029;-57
2022/11/05 07:35:17;;;;;;;31.83;7.18;;;;;;;;;;6300367;22;20022;-59
2022/11/05 07:37:44;;;;;;;30.70;6.88;;;;;;;;;;6302002;22;20030;-56
2022/11/05 07:40:12;;;;;;;35.03;4.55;;;;;;;;;;6300088;22;20430;-58
2022/11/05 07:42:54;;;;;;;23.80;2.97;;;;;;;;;;6300591;22;20019;-66
2022/11/05 07:45:21;;;;;;;19.17;3.22;;;;;;;;;;6299254;22;20333;-60
2022/11/05 07:47:56;;;;;;;28.48;2.88;;;;;;;;;;6300924;22;20058;-60
2022/11/05 07:50:37;;;;;;;15.68;2.72;;;;;;;;;;6298285;22;20015;-60
2022/11/05 07:53:13;;;;;;;24.67;3.47;;;;;;;;;;6301045;22;20051;-60
2022/11/05 07:55:41;;;;;;;27.23;3.47;;;;;;;;;;6300234;22;20094;-60
2022/11/05 07:58:09;;;;;;;30.08;3.90;;;;;;;;;;6298998;22;20102;-60
2022/11/05 08:00:43;;;;;;;19.75;3.28;;;;;;;;;;6301827;22;20019;-52
2022/11/05 08:03:12;;;;;;;16.67;2.92;;;;;;;;;;6300195;22;20023;-62
2022/11/05 08:05:44;;;;;;;18.63;3.25;;;;;;;;;;6300028;22;20047;-62
2022/11/05 08:08:19;;;;;;;26.60;6.70;;;;;;;;;;6301380;22;20041;-63
2022/11/05 08:10:52;;;;;;;48.58;16.63;;;;;;;;;;6300726;22;20023;-63
2022/11/05 08:13:20;;;;;;;38.85;16.00;;;;;;;;;;6300880;22;20341;-62
2022/11/05 08:15:55;;;;;;;18.30;5.82;;;;;;;;;;6301415;22;20022;-63
2022/11/05 08:18:22;;;;;;;21.83;4.07;;;;;;;;;;6301466;22;20126;-63
2022/11/05 08:20:50;;;;;;;20.13;4.32;;;;;;;;;;6300837;22;20077;-65
2022/11/05 08:23:23;;;;;;;22.17;3.70;;;;;;;;;;6299821;22;20487;-60
2022/11/05 08:25:51;;;;;;;19.60;3.20;;;;;;;;;;6300601;22;20019;-59
2022/11/05 08:28:25;;;;;;;16.77;2.67;;;;;;;;;;6300889;22;20030;-59
2022/11/05 08:30:54;;;;;;;23.38;4.05;;;;;;;;;;6300934;22;20121;-60
2022/11/05 08:33:21;;;;;;;26.98;3.65;;;;;;;;;;6299521;22;20042;-60
2022/11/05 08:35:56;;;;;;;24.75;3.10;;;;;;;;;;6299391;22;20098;-60
2022/11/05 08:38:23;;;;;;;19.15;2.70;;;;;;;;;;6300855;22;20102;-62
2022/11/05 08:40:57;;;;;;;25.48;3.30;;;;;;;;;;6300750;22;20060;-61
2022/11/05 08:43:24;;;;;;;18.77;2.92;;;;;;;;;;6300927;22;20027;-59
2022/11/05 08:45:53;;;;;;;19.88;4.15;;;;;;;;;;6300547;22;20023;-60
2022/11/05 08:48:28;;;;;;;18.50;2.90;;;;;;;;;;6299401;22;20535;-59
2022/11/05 08:51:07;;;;;;;23.45;3.33;;;;;;;;;;6300030;22;20058;-61
2022/11/05 08:53:42;;;;;;;23.13;3.53;;;;;;;;;;6301290;22;20023;-59
2022/11/05 08:56:09;;;;;;;21.50;3.80;;;;;;;;;;6300472;22;20099;-59
2022/11/05 08:58:36;;;;;;;26.88;2.97;;;;;;;;;;6300369;22;20023;-52
2022/11/05 09:01:10;;;;;;;23.70;3.00;;;;;;;;;;6300807;22;20054;-61
2022/11/05 09:03:37;;;;;;;25.73;3.75;;;;;;;;;;6298853;22;20019;-60
2022/11/05 09:06:04;;;;;;;25.27;3.58;;;;;;;;;;6299530;22;20045;-61
2022/11/05 09:08:38;;;;;;;20.90;3.03;;;;;;;;;;6299227;22;20041;-62
2022/11/05 09:11:05;;;;;;;23.88;3.05;;;;;;;;;;6302401;22;20025;-61
2022/11/05 09:13:39;;;;;;;20.10;3.55;;;;;;;;;;6301098;22;20042;-61
2022/11/05 09:16:06;;;;;;;;;;;;;;;;;;6302686;22;20566;-62
2022/11/05 09:18:33;;;;;;;15.07;2.55;;;;;;;;;;6301530;22;20190;-61
2022/11/05 09:21:07;;;;;;;17.70;2.63;;;;;;;;;;6302630;22;20030;-60
2022/11/05 09:23:34;;;;;;;22.98;2.70;;;;;;;;;;6302086;22;20023;-61
2022/11/05 09:26:08;;;;;;;9.98;2.00;;;;;;;;;;6302918;22;20098;-61
2022/11/05 09:28:35;;;;;;;14.73;2.97;;;;;;;;;;6302585;22;20033;-60
2022/11/05 09:31:10;;;;;;;14.63;3.08;;;;;;;;;;6300809;22;20099;-60
2022/11/05 09:33:44;;;;;;;17.52;2.38;;;;;;;;;;6300689;22;20023;-61
2022/11/05 09:36:11;;;;;;;13.18;2.35;;;;;;;;;;6300964;22;20026;-51
2022/11/05 09:38:45;;;;;;;14.70;2.85;;;;;;;;;;6301493;22;20025;-63
2022/11/05 09:41:12;;;;;;;16.85;2.30;;;;;;;;;;6301970;22;20488;-63
2022/11/05 09:43:44;;;;;;;22.13;2.55;;;;;;;;;;6300655;22;20027;-63
2022/11/05 09:46:20;;;;;;;24.58;3.13;;;;;;;;;;6300155;22;20242;-63
2022/11/05 09:48:49;;;;;;;14.57;2.80;;;;;;;;;;6299573;22;20080;-63
2022/11/05 09:51:30;;;;;;;16.70;2.70;;;;;;;;;;6299642;22;20073;-63
2022/11/05 09:53:58;;;;;;;16.20;2.38;;;;;;;;;;6300242;22;20033;-54
2022/11/05 09:56:37;;;;;;;18.10;3.15;;;;;;;;;;6301034;22;20033;-52
2022/11/05 09:59:23;;;;;;;14.50;2.05;;;;;;;;;;6300274;22;20023;-57
2022/11/05 10:02:11;;;;;;;19.23;3.05;;;;;;;;;;6300511;22;20019;-57
2022/11/05 10:04:39;;;;;;;14.93;2.25;;;;;;;;;;6300979;22;20072;-58
2022/11/05 10:07:15;;;;;;;16.13;2.45;;;;;;;;;;6301880;22;20027;-58
2022/11/05 10:09:46;;;;;;;21.42;2.50;;;;;;;;;;6300897;22;20016;-58
2022/11/05 10:12:29;;;;;;;12.95;2.55;;;;;;;;;;6301374;22;20101;-57
2022/11/05 10:15:03;;;;;;;13.55;2.50;;;;;;;;;;6299647;22;20108;-60
2022/11/05 10:17:38;;;;;;;14.85;2.55;;;;;;;;;;6302041;22;20111;-59
2022/11/05 10:20:14;;;;;;;17.55;2.53;;;;;;;;;;6300519;22;20019;-59
2022/11/05 10:22:48;;;;;;;13.38;2.35;;;;;;;;;;6300924;22;20030;-58
2022/11/05 10:25:20;;;;;;;16.95;2.53;;;;;;;;;;6274497;22;20015;-57
2022/11/05 10:27:54;;;;;;;12.35;2.20;;;;;;;;;;6300013;22;20480;-59
2022/11/05 10:30:22;;;;;;;21.00;2.75;;;;;;;;;;6302232;22;20050;-58
2022/11/05 10:32:51;;;;;;;11.80;2.20;;;;;;;;;;6299476;22;20451;-53
2022/11/05 10:35:26;;;;;;;19.23;2.15;;;;;;;;;;6300991;22;20399;-53
2022/11/05 10:37:54;;;;;;;17.38;2.60;;;;;;;;;;6299755;22;20019;-60
2022/11/05 10:40:32;;;;;;;14.55;2.55;;;;;;;;;;6300610;22;20023;-60
2022/11/05 10:43:18;;;;;;;18.08;2.40;;;;;;;;;;6299365;22;20420;-60
2022/11/05 10:45:51;;;;;;;11.77;1.92;;;;;;;;;;6300994;22;20102;-60
2022/11/05 10:48:28;;;;;;;10.88;2.10;;;;;;;;;;6300071;22;20483;-60
2022/11/05 10:51:15;;;;;;;14.85;2.90;;;;;;;;;;6301282;22;20029;-53
2022/11/05 10:53:52;;;;;;;17.70;2.00;;;;;;;;;;6297338;22;20528;-60
2022/11/05 10:56:28;;;;;;;14.77;2.42;;;;;;;;;;6301880;22;20059;-60
2022/11/05 10:58:56;;;;;;;10.43;2.00;;;;;;;;;;6300128;22;20052;-60
2022/11/05 11:01:24;;;;;;;8.15;2.45;;;;;;;;;;6301203;22;20903;-61
2022/11/05 11:04:11;;;;;;;18.27;3.33;;;;;;;;;;6299817;22;20023;-61
2022/11/05 11:06:43;;;;;;;12.45;2.33;;;;;;;;;;6300542;22;20569;-61
2022/11/05 11:09:21;;;;;;;16.52;2.00;;;;;;;;;;6299505;22;20057;-60
2022/11/05 11:11:55;;;;;;;15.52;2.15;;;;;;;;;;6300943;22;20037;-60
2022/11/05 11:14:29;;;;;;;11.70;1.95;;;;;;;;;;6301254;22;20094;-59
2022/11/05 11:16:56;;;;;;;;;;;;;;;;;;6301033;22;20646;-60
2022/11/05 11:19:26;;;;;;;14.68;2.75;;;;;;;;;;6300193;22;20336;-60
2022/11/05 11:22:02;;;;;;;15.93;2.30;;;;;;;;;;6300399;22;20301;-60
2022/11/05 11:24:50;;;;;;;12.25;2.03;;;;;;;;;;6299248;22;20058;-60
2022/11/05 11:27:25;;;;;;;12.23;2.75;;;;;;;;;;6300749;22;20027;-60
2022/11/05 11:30:03;;;;;;;17.48;2.95;;;;;;;;;;6300399;22;20094;-65
2022/11/05 11:32:38;;;;;;;12.15;2.72;;;;;;;;;;6299452;22;20042;-51
2022/11/05 11:35:07;;;;;;;14.52;2.28;;;;;;;;;;6300194;22;20425;-60
2022/11/05 11:37:36;;;;;;;11.48;1.90;;;;;;;;;;6301229;22;20029;-60
2022/11/05 11:40:10;;;;;;;11.68;2.40;;;;;;;;;;6298401;22;20031;-60
2022/11/05 11:42:48;;;;;;;12.13;2.20;;;;;;;;;;6299787;22;20023;-60
2022/11/05 11:45:34;;;;;;;12.60;2.38;;;;;;;;;;6273512;22;20055;-60
2022/11/05 11:48:13;;;;;;;18.80;2.10;;;;;;;;;;6298872;22;20023;-65
2022/11/05 11:50:53;;;;;;;14.65;2.33;;;;;;;;;;6299786;22;20539;-53
2022/11/05 11:53:34;;;;;;;14.25;2.65;;;;;;;;;;6300043;22;20352;-66
2022/11/05 11:56:03;;;;;;;11.30;2.08;;;;;;;;;;6300347;22;20063;-66
2022/11/05 11:58:38;;;;;;;12.57;2.90;;;;;;;;;;6301438;22;20027;-65
2022/11/05 12:01:38;;;;;;;13.30;2.88;;;;;;;;;;6299766;22;20471;-66
2022/11/05 12:04:17;;;;;;;15.80;2.80;;;;;;;;;;6293865;22;20078;-66
2022/11/05 12:07:12;;;;;;;11.45;2.55;;;;;;;;;;6301203;22;20106;-65
2022/11/05 12:09:53;;;;;;;5.10;1.37;;;;;;;;;;6274533;22;20045;-54
2022/11/05 12:12:41;;;;;;;14.02;1.88;;;;;;;;;;6300259;22;20058;-65
2022/11/05 12:15:11;;;;;;;14.63;2.90;;;;;;;;;;6300639;22;20023;-65
2022/11/05 12:17:52;;;;;;;13.70;2.20;;;;;;;;;;6299510;22;20050;-66
2022/11/05 12:20:25;;;;;;;9.82;2.38;;;;;;;;;;6298989;22;20026;-66
2022/11/05 12:22:58;;;;;;;17.83;2.33;;;;;;;;;;6299302;22;20065;-65
2022/11/05 12:25:35;;;;;;;19.15;2.10;;;;;;;;;;6299149;22;20103;-66
2022/11/05 12:28:29;;;;;;;16.58;2.22;;;;;;;;;;6301752;22;20110;-60
2022/11/05 12:31:05;;;;;;;14.40;2.63;;;;;;;;;;6300132;22;20460;-51
2022/11/05 12:33:45;;;;;;;14.93;2.75;;;;;;;;;;6297955;22;20620;-52
2022/11/05 12:36:32;;;;;;;13.82;1.80;;;;;;;;;;6299432;22;20046;-50
2022/11/05 12:39:23;;;;;;;17.65;2.65;;;;;;;;;;6300021;22;20098;-53
2022/11/05 12:41:51;;;;;;;11.65;2.40;;;;;;;;;;6297579;22;20379;-51
2022/11/05 12:44:24;;;;;;;11.20;2.13;;;;;;;;;;6274849;22;20021;-52
2022/11/05 12:46:52;;;;;;;11.50;2.50;;;;;;;;;;6300623;22;20030;-66
2022/11/05 12:49:52;;;;;;;12.82;2.28;;;;;;;;;;6300301;22;20021;-66
2022/11/05 12:52:25;;;;;;;14.73;2.45;;;;;;;;;;6294823;22;20106;-66
2022/11/05 12:55:12;;;;;;;11.27;2.10;;;;;;;;;;6299700;22;20033;-66
2022/11/05 12:57:41;;;;;;;13.15;1.95;;;;;;;;;;6302202;22;20026;-66
2022/11/05 13:00:17;;;;;;;51.20;5.07;;;;;;;;;;6300903;22;20037;-66
2022/11/05 13:02:49;;;;;;;12.13;2.53;;;;;;;;;;6302073;22;20019;-66
2022/11/05 13:05:41;;;;;;;18.42;2.10;;;;;;;;;;6302092;22;20030;-66
2022/11/05 13:08:10;;;;;;;12.10;2.08;;;;;;;;;;6299651;22;20033;-65
2022/11/05 13:10:48;;;;;;;16.63;2.28;;;;;;;;;;6300893;22;20016;-66
2022/11/05 13:13:18;;;;;;;18.15;2.50;;;;;;;;;;6302337;22;20050;-64
2022/11/05 13:15:57;;;;;;;18.85;2.45;;;;;;;;;;6300269;22;20015;-65
2022/11/05 13:18:53;;;;;;;16.73;2.70;;;;;;;;;;6302179;22;20047;-65
2022/11/05 13:21:28;;;;;;;8.50;2.08;;;;;;;;;;6274222;22;20041;-65
2022/11/05 13:24:10;;;;;;;18.00;2.78;;;;;;;;;;6301552;22;20025;-59
2022/11/05 13:27:13;;;;;;;11.18;2.10;;;;;;;;;;6301590;22;20106;-66
2022/11/05 13:29:47;;;;;;;14.40;2.60;;;;;;;;;;6165542;22;20018;-62
2022/11/05 13:32:23;;;;;;;16.38;2.65;;;;;;;;;;6300701;22;20098;-61
2022/11/05 13:34:55;;;;;;;18.92;2.33;;;;;;;;;;6301389;22;20033;-62
2022/11/05 13:40:17;;;;;;;12.00;1.70;;;;;;;;;;6302281;22;19926;-62
2022/11/05 13:43:03;;;;;;;5.65;1.05;;;;;;;;;;6299843;22;20027;-59
2022/11/05 13:45:35;;;;;;;11.85;1.73;;;;;;;;;;6300821;22;20019;-50
2022/11/05 13:48:27;;;;;;;11.15;1.70;;;;;;;;;;6300946;22;20027;-53
2022/11/05 13:51:08;;;;;;;13.23;2.30;;;;;;;;;;6300136;22;20074;-50
2022/11/05 13:53:52;;;;;;;7.50;1.85;;;;;;;;;;6298227;22;20025;-53
2022/11/05 13:56:25;;;;;;;18.35;2.35;;;;;;;;;;6300072;22;20164;-52
2022/11/05 13:59:04;;;;;;;15.30;2.45;;;;;;;;;;6298214;22;20026;-54
2022/11/05 14:01:40;;;;;;;18.35;2.30;;;;;;;;;;6299654;22;20047;-60
2022/11/05 14:04:27;;;;;;;22.15;2.10;;;;;;;;;;6301223;22;20030;-61
2022/11/05 14:07:04;;;;;;;20.52;2.60;;;;;;;;;;6300333;22;20023;-59
2022/11/05 14:09:38;;;;;;;12.60;2.72;;;;;;;;;;6300366;22;20451;-58
2022/11/05 14:12:13;;;;;;;17.65;2.65;;;;;;;;;;6300159;22;20030;-57
2022/11/05 14:14:52;;;;;;;21.92;2.95;;;;;;;;;;6300174;22;20248;-59
2022/11/05 14:17:31;;;;;;;20.55;3.35;;;;;;;;;;6302356;22;20019;-58
2022/11/05 14:20:05;;;;;;;24.90;3.05;;;;;;;;;;6301043;22;20020;-58
2022/11/05 14:22:32;;;;;;;26.05;3.08;;;;;;;;;;6300249;22;20098;-58
2022/11/05 14:25:00;;;;;;;13.48;2.25;;;;;;;;;;6301182;22;20025;-57
2022/11/05 14:27:35;;;;;;;15.30;1.80;;;;;;;;;;6301869;22;20110;-59
2022/11/05 14:30:22;;;;;;;15.50;2.10;;;;;;;;;;6300081;22;20355;-58
2022/11/05 14:33:02;;;;;;;12.95;2.13;;;;;;;;;;6299729;22;20716;-57
2022/11/05 14:35:34;;;;;;;19.33;2.67;;;;;;;;;;6301519;22;20118;-57
2022/11/05 14:38:21;;;;;;;18.98;2.30;;;;;;;;;;6300213;22;20025;-58
2022/11/05 14:40:49;;;;;;;14.43;2.10;;;;;;;;;;6299750;22;20113;-60
2022/11/05 14:43:24;;;;;;;17.67;2.75;;;;;;;;;;6301502;22;20019;-51
2022/11/05 14:45:56;;;;;;;18.08;2.08;;;;;;;;;;6299955;22;20019;-51
2022/11/05 14:48:39;;;;;;;17.67;2.35;;;;;;;;;;6297783;22;20102;-52
2022/11/05 14:51:30;;;;;;;20.60;2.30;;;;;;;;;;6301534;22;20431;-53
2022/11/05 14:54:16;;;;;;;11.95;1.90;;;;;;;;;;6300064;22;20027;-52
2022/11/05 14:56:45;;;;;;;23.80;1.98;;;;;;;;;;6301227;22;20019;-53
2022/11/05 14:59:30;;;;;;;15.35;1.90;;;;;;;;;;6300520;22;20019;-60
2022/11/05 15:02:01;;;;;;;10.65;1.48;;;;;;;;;;6300312;22;20019;-59
2022/11/05 15:04:39;;;;;;;18.45;2.13;;;;;;;;;;6301010;22;20476;-62
2022/11/05 15:07:06;;;;;;;11.38;2.05;;;;;;;;;;6298454;22;20043;-63
2022/11/05 15:09:48;;;;;;;15.98;2.30;;;;;;;;;;6301598;22;20041;-63
2022/11/05 15:12:24;;;;;;;14.03;1.80;;;;;;;;;;6300302;22;20063;-63
2022/11/05 15:15:03;;;;;;;22.35;2.20;;;;;;;;;;6299289;22;20268;-63
2022/11/05 15:17:46;;;;;;;17.85;1.80;;;;;;;;;;6300925;22;20019;-66
2022/11/05 15:20:17;;;;;;;15.60;2.08;;;;;;;;;;6301614;22;20118;-58
2022/11/05 15:22:55;;;;;;;12.15;2.00;;;;;;;;;;6298536;22;20093;-50
2022/11/05 15:25:34;;;;;;;20.20;2.08;;;;;;;;;;6299969;22;20389;-50
2022/11/05 15:28:11;;;;;;;15.50;2.28;;;;;;;;;;6299339;22;20119;-53
2022/11/05 15:30:54;;;;;;;13.63;2.38;;;;;;;;;;6299515;22;20134;-51
2022/11/05 15:33:28;;;;;;;18.20;2.53;;;;;;;;;;6300808;22;20043;-52
2022/11/05 15:35:55;;;;;;;;;;;;;;;;;;6299978;22;20027;-52
2022/11/05 15:38:32;;;;;;;11.50;1.52;;;;;;;;;;6301638;22;19919;-50
2022/11/05 15:41:01;;;;;;;21.27;2.20;;;;;;;;;;6300912;22;20069;-52
2022/11/05 15:43:35;;;;;;;15.93;1.75;;;;;;;;;;6299688;22;20130;-51
2022/11/05 15:46:13;;;;;;;21.67;2.45;;;;;;;;;;6298608;22;20023;-50
2022/11/05 15:48:49;;;;;;;13.85;2.10;;;;;;;;;;6299721;22;20130;-51
2022/11/05 15:51:17;;;;;;;21.92;2.22;;;;;;;;;;6300141;22;20476;-52
2022/11/05 15:53:51;;;;;;;18.60;2.67;;;;;;;;;;6300446;22;20101;-51
2022/11/05 15:56:40;;;;;;;25.08;3.10;;;;;;;;;;6300090;22;20019;-61